createdAt,value
2017-09-02T00:01:32.205Z,12.50
2017-09-02T00:03:59.826Z,12.50
2017-09-02T00:06:27.470Z,12.50
2017-09-02T00:08:55.082Z,12.60
2017-09-02T00:11:22.744Z,12.60
2017-09-02T00:13:50.331Z,12.60
2017-09-02T00:16:17.899Z,12.70
2017-09-02T00:18:45.492Z,12.70
2017-09-02T00:21:13.140Z,12.70
2017-09-02T00:23:40.679Z,12.70
2017-09-02T00:26:08.261Z,12.70
2017-09-02T00:28:35.856Z,12.80
2017-09-02T00:31:03.490Z,12.80
2017-09-02T00:33:31.089Z,12.90
2017-09-02T00:35:58.736Z,12.90
2017-09-02T00:38:26.408Z,12.90
2017-09-02T00:40:54.052Z,13.00
2017-09-02T00:43:21.650Z,12.90
2017-09-02T00:45:49.303Z,13.00
2017-09-02T00:48:16.904Z,13.00
2017-09-02T00:50:44.547Z,13.00
2017-09-02T00:53:12.107Z,12.90
2017-09-02T00:55:39.734Z,12.80
2017-09-02T00:58:07.418Z,12.80
2017-09-02T01:00:35.122Z,12.90
2017-09-02T01:03:02.803Z,12.90
2017-09-02T01:05:30.689Z,13.00
2017-09-02T01:07:58.740Z,13.10
2017-09-02T01:10:27.107Z,13.10
2017-09-02T01:12:54.916Z,13.00
2017-09-02T01:15:22.612Z,12.90
2017-09-02T01:17:50.261Z,12.80
2017-09-02T01:20:17.857Z,12.70
2017-09-02T01:22:45.499Z,12.70
2017-09-02T01:25:13.109Z,12.70
2017-09-02T01:27:40.747Z,12.70
2017-09-02T01:30:08.605Z,12.70
2017-09-02T01:32:36.632Z,12.70
2017-09-02T01:35:05.514Z,12.60
2017-09-02T01:37:33.552Z,12.70
2017-09-02T01:40:01.653Z,12.60
2017-09-02T01:42:31.583Z,12.60
2017-09-02T01:45:00.610Z,12.70
2017-09-02T01:47:29.760Z,12.50
2017-09-02T01:49:59.062Z,12.50
2017-09-02T01:52:31.392Z,12.60
2017-09-02T01:55:03.205Z,12.60
2017-09-02T01:57:32.137Z,12.50
2017-09-02T02:00:01.230Z,12.40
2017-09-02T02:02:34.432Z,12.40
2017-09-02T02:05:02.890Z,12.40
2017-09-02T02:07:31.743Z,12.30
2017-09-02T02:10:02.760Z,12.30
2017-09-02T02:12:32.624Z,12.40
2017-09-02T02:15:02.895Z,12.30
2017-09-02T02:17:32.664Z,12.30
2017-09-02T02:20:02.030Z,12.30
2017-09-02T02:22:32.058Z,12.30
2017-09-02T02:25:05.706Z,12.40
2017-09-02T02:27:34.461Z,12.40
2017-09-02T02:30:05.455Z,12.40
2017-09-02T02:32:36.263Z,12.30
2017-09-02T02:35:08.369Z,12.30
2017-09-02T02:37:40.252Z,12.40
2017-09-02T02:40:09.825Z,12.40
2017-09-02T02:42:38.042Z,12.40
2017-09-02T02:45:06.313Z,12.40
2017-09-02T02:47:34.956Z,12.40
2017-09-02T02:50:04.356Z,12.40
2017-09-02T02:52:35.630Z,12.30
2017-09-02T02:55:03.951Z,12.20
2017-09-02T02:57:33.066Z,12.30
2017-09-02T03:00:02.510Z,12.30
2017-09-02T03:02:33.031Z,12.30
2017-09-02T03:05:05.664Z,12.60
2017-09-02T03:07:35.020Z,12.50
2017-09-02T03:10:09.997Z,12.50
2017-09-02T03:12:38.751Z,12.60
2017-09-02T03:15:13.370Z,12.50
2017-09-02T03:17:42.048Z,12.50
2017-09-02T03:20:10.375Z,12.50
2017-09-02T03:22:40.276Z,12.40
2017-09-02T03:25:14.862Z,12.40
2017-09-02T03:27:42.949Z,12.50
2017-09-02T03:30:11.367Z,12.50
2017-09-02T03:32:39.700Z,12.60
2017-09-02T03:35:10.120Z,12.60
2017-09-02T03:37:38.930Z,12.50
2017-09-02T03:40:08.234Z,12.50
2017-09-02T03:42:36.691Z,12.60
2017-09-02T03:45:06.862Z,12.70
2017-09-02T03:47:41.235Z,12.60
2017-09-02T03:50:09.953Z,12.60
2017-09-02T03:52:38.553Z,12.60
2017-09-02T03:55:07.576Z,12.60
2017-09-02T03:57:36.355Z,12.60
2017-09-02T04:00:05.552Z,12.60
2017-09-02T04:02:47.332Z,12.60
2017-09-02T04:05:15.303Z,12.70
2017-09-02T04:07:43.033Z,12.70
2017-09-02T04:10:11.905Z,12.80
2017-09-02T04:12:41.010Z,12.80
2017-09-02T04:15:15.356Z,12.80
2017-09-02T04:17:42.993Z,12.90
2017-09-02T04:20:11.123Z,12.80
2017-09-02T04:22:40.807Z,12.90
2017-09-02T04:25:16.227Z,12.90
2017-09-02T04:27:43.835Z,12.90
2017-09-02T04:30:11.826Z,12.90
2017-09-02T04:32:40.364Z,12.90
2017-09-02T04:35:09.041Z,12.90
2017-09-02T04:37:38.789Z,12.80
2017-09-02T04:40:07.354Z,12.80
2017-09-02T04:42:39.936Z,12.80
2017-09-02T04:45:08.404Z,12.80
2017-09-02T04:47:36.662Z,12.80
2017-09-02T04:50:04.874Z,12.70
2017-09-02T04:52:32.937Z,12.80
2017-09-02T04:55:02.489Z,12.80
2017-09-02T04:57:31.718Z,12.90
2017-09-02T05:00:06.356Z,13.00
2017-09-02T05:02:34.848Z,13.00
2017-09-02T05:05:02.938Z,13.00
2017-09-02T05:07:32.796Z,12.90
2017-09-02T05:10:02.132Z,12.90
2017-09-02T05:12:31.325Z,12.90
2017-09-02T05:14:59.527Z,12.80
2017-09-02T05:17:28.290Z,12.80
2017-09-02T05:19:56.577Z,12.80
2017-09-02T05:22:24.250Z,12.90
2017-09-02T05:24:51.914Z,12.90
2017-09-02T05:27:19.522Z,13.00
2017-09-02T05:29:47.192Z,13.00
2017-09-02T05:32:14.759Z,13.10
2017-09-02T05:34:42.419Z,13.20
2017-09-02T05:37:09.992Z,13.20
2017-09-02T05:39:37.646Z,13.20
2017-09-02T05:42:05.309Z,13.30
2017-09-02T05:44:32.966Z,13.30
2017-09-02T05:47:00.647Z,13.40
2017-09-02T05:49:28.450Z,13.50
2017-09-02T05:51:56.452Z,13.60
2017-09-02T05:54:24.083Z,13.70
2017-09-02T05:56:51.712Z,13.80
2017-09-02T05:59:19.314Z,13.80
2017-09-02T06:01:46.939Z,13.90
2017-09-02T06:04:14.541Z,14.00
2017-09-02T06:06:42.180Z,14.00
2017-09-02T06:09:09.780Z,14.00
2017-09-02T06:11:37.442Z,14.10
2017-09-02T06:14:05.081Z,14.00
2017-09-02T06:16:32.856Z,14.20
2017-09-02T06:19:00.474Z,14.10
2017-09-02T06:21:28.168Z,14.20
2017-09-02T06:23:55.808Z,14.30
2017-09-02T06:26:23.483Z,14.30
2017-09-02T06:28:51.042Z,14.20
2017-09-02T06:31:18.694Z,14.10
2017-09-02T06:33:46.278Z,14.10
2017-09-02T06:36:13.904Z,14.10
2017-09-02T06:38:41.493Z,14.20
2017-09-02T06:44:07.103Z,14.30
2017-09-02T06:46:34.802Z,14.40
2017-09-02T06:49:02.425Z,14.50
2017-09-02T06:51:30.169Z,14.60
2017-09-02T06:53:57.864Z,14.80
2017-09-02T06:56:25.627Z,14.80
2017-09-02T06:58:53.245Z,15.00
2017-09-02T07:01:21.633Z,15.00
2017-09-02T07:03:49.240Z,15.00
2017-09-02T07:06:16.844Z,15.10
2017-09-02T07:08:44.490Z,15.00
2017-09-02T07:11:12.095Z,15.10
2017-09-02T07:13:39.738Z,15.10
2017-09-02T07:16:07.325Z,15.20
2017-09-02T07:18:34.979Z,15.30
2017-09-02T07:21:02.619Z,15.30
2017-09-02T07:23:30.301Z,15.40
2017-09-02T07:25:57.881Z,15.60
2017-09-02T07:28:25.596Z,15.70
2017-09-02T07:30:53.225Z,15.80
2017-09-02T07:33:20.865Z,15.90
2017-09-02T07:35:48.472Z,15.80
2017-09-02T07:38:16.077Z,15.50
2017-09-02T07:40:43.642Z,15.20
2017-09-02T07:43:11.303Z,15.40
2017-09-02T07:45:38.925Z,15.50
2017-09-02T07:48:06.570Z,15.60
2017-09-02T07:50:34.147Z,15.80
2017-09-02T07:53:01.798Z,15.70
2017-09-02T07:55:29.519Z,15.50
2017-09-02T07:57:57.224Z,15.50
2017-09-02T08:00:24.823Z,15.40
2017-09-02T08:02:52.869Z,15.40
2017-09-02T08:05:20.507Z,15.40
2017-09-02T08:07:48.046Z,15.20
2017-09-02T08:10:15.697Z,15.00
2017-09-02T08:12:43.234Z,14.90
2017-09-02T08:15:10.864Z,14.50
2017-09-02T08:17:38.443Z,14.50
2017-09-02T08:20:06.071Z,14.30
2017-09-02T08:22:33.666Z,14.10
2017-09-02T08:25:01.405Z,13.90
2017-09-02T08:27:29.031Z,13.60
2017-09-02T08:29:57.915Z,13.50
2017-09-02T08:32:26.289Z,13.30
2017-09-02T08:34:54.760Z,12.70
2017-09-02T08:37:22.380Z,12.70
2017-09-02T08:39:49.980Z,12.70
2017-09-02T08:42:17.564Z,12.70
2017-09-02T08:44:45.148Z,12.70
2017-09-02T08:47:13.304Z,12.80
2017-09-02T08:49:40.891Z,12.80
2017-09-02T08:52:08.468Z,12.80
2017-09-02T08:54:36.079Z,12.80
2017-09-02T08:57:03.725Z,12.80
2017-09-02T08:59:31.370Z,12.80
2017-09-02T09:01:59.100Z,12.80
2017-09-02T09:04:26.737Z,12.90
2017-09-02T09:06:54.359Z,13.00
2017-09-02T09:09:21.952Z,12.90
2017-09-02T09:11:49.513Z,12.90
2017-09-02T09:14:17.170Z,12.90
2017-09-02T09:16:44.847Z,13.00
2017-09-02T09:19:12.438Z,13.10
2017-09-02T09:21:40.056Z,12.90
2017-09-02T09:24:07.810Z,12.80
2017-09-02T09:26:35.529Z,12.80
2017-09-02T09:29:03.108Z,12.60
2017-09-02T09:31:31.577Z,12.60
2017-09-02T09:33:59.387Z,12.60
2017-09-02T09:36:27.304Z,12.60
2017-09-02T09:38:54.958Z,12.60
2017-09-02T09:41:22.545Z,12.60
2017-09-02T09:43:50.181Z,12.60
2017-09-02T09:46:17.777Z,12.70
2017-09-02T09:48:45.461Z,12.70
2017-09-02T09:51:13.043Z,12.80
2017-09-02T09:53:40.696Z,12.90
2017-09-02T09:56:08.272Z,12.90
2017-09-02T09:58:35.977Z,13.00
2017-09-02T10:01:03.618Z,13.10
2017-09-02T10:03:31.210Z,13.20
2017-09-02T10:05:59.011Z,13.50
2017-09-02T10:08:26.649Z,13.50
2017-09-02T10:10:54.261Z,13.70
2017-09-02T10:13:21.900Z,13.80
2017-09-02T10:15:49.519Z,13.80
2017-09-02T10:18:17.155Z,13.90
2017-09-02T10:20:44.738Z,14.00
2017-09-02T10:23:12.392Z,14.00
2017-09-02T10:25:40.001Z,14.10
2017-09-02T10:28:07.654Z,14.10
2017-09-02T10:30:35.188Z,14.10
2017-09-02T10:33:02.842Z,14.00
2017-09-02T10:35:30.823Z,14.00
2017-09-02T10:37:58.521Z,13.90
2017-09-02T10:40:26.177Z,14.00
2017-09-02T10:42:53.835Z,14.20
2017-09-02T10:45:21.453Z,14.30
2017-09-02T10:47:49.095Z,14.40
2017-09-02T10:50:16.690Z,14.50
2017-09-02T10:52:45.098Z,14.80
2017-09-02T10:55:12.631Z,14.80
2017-09-02T10:57:40.574Z,14.80
2017-09-02T11:00:08.947Z,14.90
2017-09-02T11:02:36.763Z,15.00
2017-09-02T11:05:04.365Z,15.10
2017-09-02T11:07:32.003Z,15.00
2017-09-02T11:09:59.601Z,15.00
2017-09-02T11:12:27.308Z,15.10
2017-09-02T11:14:54.916Z,15.10
2017-09-02T11:17:22.548Z,15.00
2017-09-02T11:19:50.115Z,15.00
2017-09-02T11:22:17.746Z,15.10
2017-09-02T11:24:45.337Z,15.00
2017-09-02T11:27:13.068Z,15.00
2017-09-02T11:29:40.947Z,15.10
2017-09-02T11:32:08.505Z,15.10
2017-09-02T11:34:36.116Z,15.20
2017-09-02T11:37:03.739Z,15.30
2017-09-02T11:39:31.342Z,15.40
2017-09-02T11:41:59.025Z,15.70
2017-09-02T11:44:26.663Z,15.90
2017-09-02T11:46:55.104Z,16.10
2017-09-02T11:49:23.147Z,16.10
2017-09-02T11:51:50.794Z,16.10
2017-09-02T11:54:18.380Z,16.10
2017-09-02T11:56:45.986Z,16.10
2017-09-02T11:59:13.571Z,16.30
2017-09-02T12:01:41.288Z,16.20
2017-09-02T12:04:08.921Z,16.10
2017-09-02T12:06:36.524Z,16.30
2017-09-02T12:09:05.382Z,16.70
2017-09-02T12:11:33.037Z,16.70
2017-09-02T12:14:00.607Z,16.90
2017-09-02T12:16:28.249Z,17.00
2017-09-02T12:18:55.849Z,17.00
2017-09-02T12:21:23.458Z,17.20
2017-09-02T12:23:51.129Z,17.20
2017-09-02T12:26:18.750Z,17.20
2017-09-02T12:28:46.413Z,17.00
2017-09-02T12:31:14.002Z,17.10
2017-09-02T12:33:41.668Z,17.20
2017-09-02T12:36:09.289Z,17.10
2017-09-02T12:38:36.937Z,17.10
2017-09-02T12:41:04.551Z,17.30
2017-09-02T12:43:32.222Z,17.30
2017-09-02T12:45:59.834Z,17.20
2017-09-02T12:48:27.715Z,17.20
2017-09-02T12:50:55.299Z,17.30
2017-09-02T12:53:22.973Z,17.50
2017-09-02T12:55:50.559Z,17.50
2017-09-02T12:58:18.201Z,17.50
2017-09-02T13:00:45.804Z,17.60
2017-09-02T13:03:13.794Z,17.40
2017-09-02T13:05:41.469Z,17.20
2017-09-02T13:08:09.131Z,17.20
2017-09-02T13:10:36.731Z,17.20
2017-09-02T13:13:04.304Z,17.10
2017-09-02T13:15:31.978Z,17.30
2017-09-02T13:17:59.593Z,17.40
2017-09-02T13:20:27.312Z,17.40
2017-09-02T13:22:54.903Z,17.40
2017-09-02T13:25:22.550Z,17.30
2017-09-02T13:27:50.142Z,17.30
2017-09-02T13:30:17.764Z,17.50
2017-09-02T13:32:45.343Z,17.60
2017-09-02T13:35:13.012Z,17.70
2017-09-02T13:37:40.617Z,17.40
2017-09-02T13:40:08.253Z,17.50
2017-09-02T13:42:35.813Z,17.70
2017-09-02T13:45:03.462Z,17.80
2017-09-02T13:47:31.081Z,17.90
2017-09-02T13:49:58.741Z,18.10
2017-09-02T13:52:26.368Z,18.40
2017-09-02T13:54:53.994Z,18.50
2017-09-02T13:57:21.595Z,18.50
2017-09-02T13:59:49.224Z,18.30
2017-09-02T14:02:16.758Z,18.20
2017-09-02T14:04:44.287Z,18.00
2017-09-02T14:07:11.877Z,18.00
2017-09-02T14:09:39.487Z,17.80
2017-09-02T14:12:07.914Z,17.70
2017-09-02T14:14:35.820Z,17.60
2017-09-02T14:17:03.429Z,17.60
2017-09-02T14:19:31.013Z,17.60
2017-09-02T14:21:58.616Z,17.70
2017-09-02T14:24:26.204Z,17.70
2017-09-02T14:26:53.885Z,17.70
2017-09-02T14:29:21.469Z,17.90
2017-09-02T14:31:49.115Z,18.10
2017-09-02T14:34:16.695Z,18.30
2017-09-02T14:36:45.422Z,18.50
2017-09-02T14:39:13.056Z,18.60
2017-09-02T14:41:40.633Z,18.80
2017-09-02T14:44:08.242Z,18.80
2017-09-02T14:46:35.874Z,18.90
2017-09-02T14:49:03.441Z,19.00
2017-09-02T14:51:31.053Z,19.00
2017-09-02T14:53:58.774Z,18.90
2017-09-02T14:56:26.359Z,18.40
2017-09-02T14:58:53.932Z,18.40
2017-09-02T15:01:21.556Z,18.20
2017-09-02T15:03:49.146Z,18.00
2017-09-02T15:06:16.792Z,18.20
2017-09-02T15:08:44.365Z,18.50
2017-09-02T15:11:11.985Z,18.70
2017-09-02T15:13:39.677Z,19.00
2017-09-02T15:16:07.246Z,19.10
2017-09-02T15:18:34.827Z,19.30
2017-09-02T15:21:02.410Z,19.30
2017-09-02T15:23:30.039Z,19.40
2017-09-02T15:25:57.696Z,19.40
2017-09-02T15:28:25.290Z,19.30
2017-09-02T15:30:52.916Z,19.10
2017-09-02T15:33:20.451Z,19.10
2017-09-02T15:35:48.086Z,18.90
2017-09-02T15:38:15.674Z,18.80
2017-09-02T15:40:43.274Z,18.60
2017-09-02T15:43:10.875Z,18.40
2017-09-02T15:45:38.449Z,18.30
2017-09-02T15:48:05.980Z,18.20
2017-09-02T15:50:33.604Z,18.10
2017-09-02T15:53:01.249Z,18.00
2017-09-02T15:55:28.893Z,17.90
2017-09-02T15:57:56.558Z,17.80
2017-09-02T16:00:24.161Z,17.70
2017-09-02T16:02:51.815Z,17.60
2017-09-02T16:05:19.400Z,17.50
2017-09-02T16:07:47.038Z,17.40
2017-09-02T16:10:14.587Z,17.30
2017-09-02T16:12:42.222Z,17.20
2017-09-02T16:15:09.833Z,17.20
2017-09-02T16:17:37.461Z,17.30
2017-09-02T16:20:05.029Z,17.10
2017-09-02T16:22:32.631Z,17.00
2017-09-02T16:25:00.247Z,16.90
2017-09-02T16:27:27.918Z,16.80
2017-09-02T16:29:55.495Z,16.70
2017-09-02T16:32:23.154Z,16.50
2017-09-02T16:34:50.746Z,16.40
2017-09-02T16:37:18.385Z,16.20
2017-09-02T16:39:45.987Z,16.10
2017-09-02T16:42:13.600Z,15.90
2017-09-02T16:44:41.202Z,15.80
2017-09-02T16:47:08.807Z,15.80
2017-09-02T16:49:36.419Z,15.70
2017-09-02T16:52:04.107Z,15.70
2017-09-02T16:54:31.731Z,15.60
2017-09-02T16:56:59.376Z,15.50
2017-09-02T16:59:27.043Z,15.50
2017-09-02T17:01:54.684Z,15.30
2017-09-02T17:04:22.275Z,15.20
2017-09-02T17:06:49.974Z,15.20
2017-09-02T17:09:17.536Z,15.00
2017-09-02T17:11:45.150Z,15.10
2017-09-02T17:14:12.821Z,15.00
2017-09-02T17:16:40.443Z,15.00
2017-09-02T17:19:08.105Z,15.00
2017-09-02T17:21:35.727Z,15.00
2017-09-02T17:24:03.421Z,15.00
2017-09-02T17:26:31.639Z,15.00
2017-09-02T17:28:59.368Z,14.90
2017-09-02T17:31:27.071Z,14.90
2017-09-02T17:33:54.697Z,15.00
2017-09-02T17:36:22.297Z,15.10
2017-09-02T17:38:49.999Z,15.00
2017-09-02T17:41:17.757Z,14.90
2017-09-02T17:43:45.304Z,14.80
2017-09-02T17:46:12.895Z,14.80
2017-09-02T17:48:40.463Z,14.70
2017-09-02T17:51:08.059Z,14.60
2017-09-02T17:53:35.768Z,14.50
2017-09-02T17:56:03.409Z,14.50
2017-09-02T17:58:31.008Z,14.60
2017-09-02T18:00:58.622Z,14.50
2017-09-02T18:03:26.369Z,14.40
2017-09-02T18:05:53.967Z,14.40
2017-09-02T18:08:21.530Z,14.30
2017-09-02T18:10:49.091Z,14.30
2017-09-02T18:13:16.678Z,14.20
2017-09-02T18:15:44.326Z,14.20
2017-09-02T18:18:11.936Z,14.20
2017-09-02T18:20:39.599Z,14.10
2017-09-02T18:23:07.884Z,14.10
2017-09-02T18:25:35.522Z,14.10
2017-09-02T18:28:03.121Z,14.10
2017-09-02T18:30:30.929Z,14.10
2017-09-02T18:32:58.527Z,13.90
2017-09-02T18:35:26.177Z,14.00
2017-09-02T18:37:53.828Z,13.90
2017-09-02T18:40:21.694Z,13.90
2017-09-02T18:42:49.348Z,13.80
2017-09-02T18:45:16.948Z,13.90
2017-09-02T18:47:44.611Z,13.80
2017-09-02T18:50:12.234Z,13.90
2017-09-02T18:52:39.901Z,13.80
2017-09-02T18:55:07.500Z,13.80
2017-09-02T18:57:35.275Z,13.70
2017-09-02T19:00:02.940Z,13.70
2017-09-02T19:02:30.544Z,13.70
2017-09-02T19:04:58.283Z,13.60
2017-09-02T19:07:25.908Z,13.60
2017-09-02T19:09:53.545Z,13.60
2017-09-02T19:12:21.142Z,13.50
2017-09-02T19:14:48.783Z,13.50
2017-09-02T19:17:16.369Z,13.60
2017-09-02T19:19:44.025Z,13.50
2017-09-02T19:22:11.652Z,13.50
2017-09-02T19:24:39.360Z,13.50
2017-09-02T19:27:06.978Z,13.50
2017-09-02T19:29:34.536Z,13.50
2017-09-02T19:32:02.142Z,13.60
2017-09-02T19:34:29.775Z,13.60
2017-09-02T19:36:57.378Z,13.50
2017-09-02T19:39:24.959Z,13.50
2017-09-02T19:41:52.607Z,13.50
2017-09-02T19:44:20.203Z,13.50
2017-09-02T19:46:47.840Z,13.40
2017-09-02T19:49:15.429Z,13.50
2017-09-02T19:51:43.027Z,13.40
2017-09-02T19:54:10.608Z,13.40
2017-09-02T19:56:38.411Z,13.30
2017-09-02T19:59:05.982Z,13.40
2017-09-02T20:01:33.554Z,13.30
2017-09-02T20:04:01.205Z,13.30
2017-09-02T20:06:28.838Z,13.40
2017-09-02T20:08:56.493Z,13.30
2017-09-02T20:11:24.824Z,13.30
2017-09-02T20:13:52.445Z,13.30
2017-09-02T20:16:20.022Z,13.20
2017-09-02T20:18:47.723Z,13.30
2017-09-02T20:21:15.323Z,13.30
2017-09-02T20:23:43.964Z,13.40
2017-09-02T20:26:11.560Z,13.50
2017-09-02T20:28:39.950Z,13.40
2017-09-02T20:31:07.548Z,13.40
2017-09-02T20:33:35.167Z,13.40
2017-09-02T20:36:02.822Z,13.50
2017-09-02T20:38:30.410Z,13.50
2017-09-02T20:40:58.053Z,13.60
2017-09-02T20:43:25.657Z,13.60
2017-09-02T20:45:53.290Z,13.60
2017-09-02T20:48:20.892Z,13.60
2017-09-02T20:50:48.541Z,13.60
2017-09-02T20:53:16.133Z,13.50
2017-09-02T20:55:43.740Z,13.40
2017-09-02T20:58:11.328Z,13.40
2017-09-02T21:00:38.927Z,13.40
2017-09-02T21:03:06.543Z,13.40
2017-09-02T21:05:34.136Z,13.40
2017-09-02T21:08:01.785Z,13.50
2017-09-02T21:10:29.379Z,13.40
2017-09-02T21:12:56.968Z,13.50
2017-09-02T21:15:25.316Z,13.40
2017-09-02T21:17:52.962Z,13.40
2017-09-02T21:20:20.632Z,13.40
2017-09-02T21:22:48.421Z,13.30
2017-09-02T21:25:16.105Z,13.30
2017-09-02T21:27:43.667Z,13.40
2017-09-02T21:30:11.257Z,13.30
2017-09-02T21:32:38.855Z,13.30
2017-09-02T21:35:06.404Z,13.40
2017-09-02T21:37:34.223Z,13.30
2017-09-02T21:40:01.846Z,13.30
2017-09-02T21:42:29.436Z,13.20
2017-09-02T21:44:57.200Z,13.20
2017-09-02T21:47:24.790Z,13.30
2017-09-02T21:49:52.372Z,13.20
2017-09-02T21:52:19.953Z,13.10
2017-09-02T21:54:47.621Z,13.00
2017-09-02T21:57:15.214Z,13.10
2017-09-02T21:59:42.855Z,13.00
2017-09-02T22:02:10.466Z,13.00
2017-09-02T22:04:38.081Z,12.80
2017-09-02T22:07:05.657Z,12.70
2017-09-02T22:09:33.292Z,12.60
2017-09-02T22:12:01.020Z,12.50
2017-09-02T22:14:28.797Z,12.50
2017-09-02T22:16:56.444Z,12.40
2017-09-02T22:19:24.053Z,12.40
2017-09-02T22:21:51.592Z,12.40
2017-09-02T22:24:19.997Z,12.30
2017-09-02T22:26:47.599Z,12.30
2017-09-02T22:29:15.238Z,12.30
2017-09-02T22:31:42.764Z,12.30
2017-09-02T22:34:10.389Z,12.30
2017-09-02T22:36:37.961Z,12.20
2017-09-02T22:39:05.618Z,12.10
2017-09-02T22:41:33.272Z,12.10
2017-09-02T22:44:00.945Z,12.10
2017-09-02T22:46:28.615Z,12.10
2017-09-02T22:48:56.266Z,12.10
2017-09-02T22:51:23.876Z,11.90
2017-09-02T22:53:51.455Z,11.90
2017-09-02T22:56:19.016Z,11.90
2017-09-02T22:58:46.656Z,11.80
2017-09-02T23:01:14.257Z,11.70
2017-09-02T23:03:41.855Z,11.60
2017-09-02T23:06:09.514Z,11.70
2017-09-02T23:08:37.104Z,11.80
2017-09-02T23:11:04.784Z,11.60
2017-09-02T23:13:32.370Z,11.70
2017-09-02T23:16:00.008Z,11.50
2017-09-02T23:18:27.685Z,11.50
2017-09-02T23:20:55.365Z,11.50
2017-09-02T23:23:22.988Z,11.40
2017-09-02T23:25:50.627Z,11.40
2017-09-02T23:28:18.237Z,11.30
2017-09-02T23:30:45.858Z,11.40
2017-09-02T23:33:13.518Z,11.40
2017-09-02T23:35:41.190Z,11.30
2017-09-02T23:38:09.216Z,11.40
2017-09-02T23:40:36.878Z,11.50
2017-09-02T23:43:04.498Z,11.40
2017-09-02T23:45:32.142Z,11.20
2017-09-02T23:47:59.810Z,11.20
2017-09-02T23:50:27.460Z,11.20
2017-09-02T23:52:55.171Z,11.10
2017-09-02T23:55:22.778Z,11.10
2017-09-02T23:57:50.457Z,11.10
